createdAt,value
2022-10-07T00:01:06.282Z,62.17
2022-10-07T00:03:34.748Z,59.53
2022-10-07T00:06:19.399Z,60.45
2022-10-07T00:08:53.080Z,58.13
2022-10-07T00:11:26.056Z,60.05
2022-10-07T00:13:59.453Z,58.38
2022-10-07T00:16:34.854Z,59.95
2022-10-07T00:19:07.544Z,58.25
2022-10-07T00:21:37.525Z,61.05
2022-10-07T00:24:07.370Z,60.38
2022-10-07T00:26:36.779Z,57.92
2022-10-07T00:29:07.000Z,58.88
2022-10-07T00:31:38.227Z,55.83
2022-10-07T00:34:05.954Z,59.25
2022-10-07T00:36:37.466Z,59.75
2022-10-07T00:39:14.142Z,58.97
2022-10-07T00:41:51.856Z,58.17
2022-10-07T00:44:41.798Z,57.92
2022-10-07T00:47:29.708Z,57.10
2022-10-07T00:50:05.694Z,58.97
2022-10-07T00:52:42.048Z,59.33
2022-10-07T00:55:17.520Z,57.58
2022-10-07T00:57:47.955Z,57.72
2022-10-07T01:00:15.770Z,58.30
2022-10-07T01:02:44.383Z,57.97
2022-10-07T01:05:14.129Z,58.88
2022-10-07T01:07:47.944Z,58.33
2022-10-07T01:10:19.909Z,58.38
2022-10-07T01:13:19.586Z,60.80
2022-10-07T01:16:17.382Z,58.67
2022-10-07T01:19:59.694Z,60.95
2022-10-07T01:22:49.924Z,57.60
2022-10-07T01:25:51.140Z,60.92
2022-10-07T01:28:47.622Z,60.60
2022-10-07T01:33:48.287Z,57.90
2022-10-07T01:36:18.112Z,59.17
2022-10-07T01:38:56.686Z,61.28
2022-10-07T01:41:24.300Z,58.78
2022-10-07T01:43:54.996Z,60.53
2022-10-07T01:46:27.124Z,57.00
2022-10-07T01:48:57.818Z,59.55
2022-10-07T01:51:30.337Z,59.60
2022-10-07T01:54:32.854Z,60.83
2022-10-07T01:57:53.830Z,65.28
2022-10-07T02:00:21.261Z,67.75
2022-10-07T02:03:29.271Z,68.05
2022-10-07T02:06:24.527Z,73.90
2022-10-07T02:08:55.880Z,74.13
2022-10-07T02:11:37.667Z,77.88
2022-10-07T02:14:14.892Z,75.20
2022-10-07T02:16:48.226Z,77.40
2022-10-07T02:19:47.616Z,77.45
2022-10-07T02:22:17.549Z,79.65
2022-10-07T02:24:47.705Z,76.17
2022-10-07T02:27:23.221Z,69.20
2022-10-07T02:30:02.097Z,70.85
2022-10-07T02:32:31.993Z,70.95
2022-10-07T02:35:07.084Z,71.72
2022-10-07T02:37:39.899Z,68.35
2022-10-07T02:40:12.110Z,63.78
2022-10-07T02:43:53.176Z,69.72
2022-10-07T02:47:03.652Z,66.82
2022-10-07T02:49:38.377Z,68.60
2022-10-07T02:52:12.292Z,63.70
2022-10-07T02:54:52.337Z,63.20
2022-10-07T02:57:21.790Z,65.03
2022-10-07T02:59:51.468Z,63.75
2022-10-07T03:02:51.340Z,61.83
2022-10-07T03:05:21.371Z,63.40
2022-10-07T03:07:56.350Z,62.20
2022-10-07T03:10:24.137Z,59.03
2022-10-07T03:12:51.449Z,62.03
2022-10-07T03:15:20.111Z,64.47
2022-10-07T03:17:47.943Z,67.13
2022-10-07T03:20:15.523Z,68.45
2022-10-07T03:22:44.759Z,69.43
2022-10-07T03:25:15.394Z,68.90
2022-10-07T03:27:43.571Z,67.35
2022-10-07T03:30:12.098Z,69.45
2022-10-07T03:32:44.128Z,68.20
2022-10-07T03:35:11.369Z,67.75
2022-10-07T03:37:39.121Z,67.28
2022-10-07T03:40:09.996Z,63.78
2022-10-07T03:42:38.105Z,66.18
2022-10-07T03:45:06.989Z,65.75
2022-10-07T03:47:34.217Z,64.38
2022-10-07T03:50:01.700Z,62.67
2022-10-07T03:52:31.365Z,62.33
2022-10-07T03:54:58.565Z,62.45
2022-10-07T03:57:44.861Z,60.85
2022-10-07T04:00:13.403Z,60.88
2022-10-07T04:02:49.884Z,64.35
2022-10-07T04:05:21.443Z,63.50
2022-10-07T04:07:50.501Z,64.07
2022-10-07T04:10:20.322Z,66.20
2022-10-07T04:12:49.722Z,64.05
2022-10-07T04:15:17.805Z,63.67
2022-10-07T04:17:48.125Z,66.80
2022-10-07T04:20:18.305Z,65.43
2022-10-07T04:22:45.978Z,66.88
2022-10-07T04:25:32.293Z,64.60
2022-10-07T04:28:08.425Z,67.22
2022-10-07T04:30:40.538Z,66.15
2022-10-07T04:33:09.829Z,63.83
2022-10-07T04:35:39.588Z,64.90
2022-10-07T04:38:13.173Z,65.03
2022-10-07T04:40:46.644Z,62.42
2022-10-07T04:43:19.356Z,62.75
2022-10-07T04:46:02.237Z,67.25
2022-10-07T04:48:29.792Z,63.35
2022-10-07T04:51:07.740Z,67.45
2022-10-07T04:53:37.566Z,66.45
2022-10-07T04:56:06.412Z,58.95
2022-10-07T04:58:33.956Z,63.25
2022-10-07T05:01:09.224Z,60.28
2022-10-07T05:03:40.452Z,63.13
2022-10-07T05:06:09.475Z,65.10
2022-10-07T05:08:42.384Z,64.35
2022-10-07T05:11:11.020Z,61.95
2022-10-07T05:13:46.346Z,60.03
2022-10-07T05:16:13.966Z,64.22
2022-10-07T05:18:41.185Z,64.68
2022-10-07T05:21:12.057Z,66.35
2022-10-07T05:23:43.517Z,63.50
2022-10-07T05:26:15.231Z,66.38
2022-10-07T05:28:48.640Z,63.20
2022-10-07T05:31:20.281Z,63.38
2022-10-07T05:33:52.431Z,64.57
2022-10-07T05:36:24.942Z,63.63
2022-10-07T05:38:57.930Z,61.38
2022-10-07T05:41:30.764Z,63.10
2022-10-07T05:44:01.430Z,64.13
2022-10-07T05:46:28.813Z,60.95
2022-10-07T05:48:58.676Z,62.10
2022-10-07T05:51:31.510Z,60.08
2022-10-07T05:54:00.342Z,62.20
2022-10-07T05:56:36.805Z,63.83
2022-10-07T05:59:04.650Z,59.92
2022-10-07T06:01:32.592Z,61.40
2022-10-07T06:04:07.958Z,62.03
2022-10-07T06:06:38.559Z,58.70
2022-10-07T06:09:27.690Z,62.20
2022-10-07T06:12:14.920Z,62.15
2022-10-07T06:14:42.583Z,59.67
2022-10-07T06:17:10.411Z,58.42
2022-10-07T06:19:38.786Z,59.15
2022-10-07T06:22:06.569Z,59.00
2022-10-07T06:24:36.627Z,60.67
2022-10-07T06:27:04.112Z,63.42
2022-10-07T06:29:32.107Z,58.58
2022-10-07T06:32:00.353Z,55.80
2022-10-07T06:34:27.926Z,56.15
2022-10-07T06:36:56.162Z,59.47
2022-10-07T06:39:23.855Z,60.40
2022-10-07T06:41:54.449Z,58.65
2022-10-07T06:44:44.785Z,60.03
2022-10-07T06:47:16.545Z,63.15
2022-10-07T06:49:45.638Z,67.13
2022-10-07T06:52:13.658Z,65.22
2022-10-07T06:54:42.845Z,61.58
2022-10-07T06:57:40.435Z,58.80
2022-10-07T07:00:01.050Z,56.05
2022-10-07T07:02:30.480Z,57.40
2022-10-07T07:04:58.806Z,57.67
2022-10-07T07:07:27.347Z,50.25
2022-10-07T07:09:55.015Z,47.55
2022-10-07T07:12:25.257Z,46.85
2022-10-07T07:14:53.876Z,47.05
2022-10-07T07:17:22.037Z,45.28
2022-10-07T07:19:49.337Z,45.70
2022-10-07T07:22:17.717Z,46.10
2022-10-07T07:24:45.602Z,44.17
2022-10-07T07:27:15.086Z,40.83
2022-10-07T07:29:43.691Z,38.22
2022-10-07T07:32:12.082Z,39.28
2022-10-07T07:34:42.501Z,39.20
2022-10-07T07:37:14.162Z,39.85
2022-10-07T07:39:46.857Z,38.60
2022-10-07T07:42:16.857Z,38.22
2022-10-07T07:44:44.361Z,38.63
2022-10-07T07:47:18.472Z,38.70
2022-10-07T07:49:49.485Z,36.60
2022-10-07T07:52:29.548Z,37.15
2022-10-07T07:54:59.134Z,36.33
2022-10-07T07:57:28.288Z,35.35
2022-10-07T07:59:58.232Z,36.08
2022-10-07T08:02:26.678Z,38.33
2022-10-07T08:04:54.578Z,38.88
2022-10-07T08:07:22.986Z,39.55
2022-10-07T08:09:51.006Z,41.78
2022-10-07T08:12:21.035Z,41.72
2022-10-07T08:14:49.248Z,40.20
2022-10-07T08:17:17.514Z,42.63
2022-10-07T08:19:45.050Z,43.28
2022-10-07T08:22:17.464Z,42.90
2022-10-07T08:24:47.064Z,41.53
2022-10-07T08:27:15.781Z,43.15
2022-10-07T08:29:42.960Z,43.40
2022-10-07T08:32:11.228Z,44.40
2022-10-07T08:34:39.721Z,44.45
2022-10-07T08:37:06.993Z,43.08
2022-10-07T08:39:34.267Z,43.47
2022-10-07T08:42:42.508Z,44.35
2022-10-07T08:45:27.492Z,45.97
2022-10-07T08:47:57.483Z,45.42
2022-10-07T08:51:12.569Z,46.72
2022-10-07T08:53:40.191Z,46.15
2022-10-07T08:56:13.040Z,51.15
2022-10-07T08:59:04.291Z,46.20
2022-10-07T09:02:06.140Z,46.40
2022-10-07T09:05:08.584Z,47.63
2022-10-07T09:07:50.160Z,46.17
2022-10-07T09:10:34.359Z,47.97
2022-10-07T09:13:14.181Z,46.33
2022-10-07T09:16:00.577Z,49.33
2022-10-07T09:18:50.862Z,46.92
2022-10-07T09:21:48.238Z,47.10
2022-10-07T09:24:30.389Z,48.88
2022-10-07T09:27:23.031Z,49.95
2022-10-07T09:29:51.411Z,46.33
2022-10-07T09:32:19.983Z,47.97
2022-10-07T09:34:47.840Z,47.15
2022-10-07T09:37:34.936Z,46.55
2022-10-07T09:41:01.258Z,46.22
2022-10-07T09:43:31.876Z,45.90
2022-10-07T09:46:00.841Z,47.00
2022-10-07T09:48:33.714Z,44.03
2022-10-07T09:51:21.661Z,43.50
2022-10-07T09:54:05.179Z,44.88
2022-10-07T09:56:46.458Z,42.92
2022-10-07T09:59:29.718Z,44.47
2022-10-07T10:02:15.808Z,41.53
2022-10-07T10:04:57.368Z,44.75
2022-10-07T10:07:37.427Z,44.88
2022-10-07T10:10:22.457Z,42.40
2022-10-07T10:12:53.611Z,42.90
2022-10-07T10:15:35.872Z,44.67
2022-10-07T10:18:33.911Z,40.05
2022-10-07T10:21:29.842Z,39.92
2022-10-07T10:24:01.920Z,39.95
2022-10-07T10:27:07.134Z,41.58
2022-10-07T10:30:05.664Z,46.17
2022-10-07T10:33:25.753Z,42.58
2022-10-07T10:36:12.714Z,42.40
2022-10-07T10:39:04.541Z,40.25
2022-10-07T10:41:52.211Z,38.08
2022-10-07T10:44:42.576Z,38.85
2022-10-07T10:47:25.534Z,39.30
2022-10-07T10:50:10.816Z,39.58
2022-10-07T10:53:08.337Z,40.80
2022-10-07T10:56:02.399Z,35.42
2022-10-07T10:59:21.448Z,31.40
2022-10-07T11:02:29.463Z,35.95
2022-10-07T11:05:34.241Z,34.90
2022-10-07T11:08:27.089Z,32.00
2022-10-07T11:11:03.028Z,27.15
2022-10-07T11:13:54.368Z,26.95
2022-10-07T11:16:38.705Z,25.73
2022-10-07T11:19:35.924Z,24.95
2022-10-07T11:22:04.249Z,26.40
2022-10-07T11:24:57.009Z,26.65
2022-10-07T11:27:30.067Z,30.08
2022-10-07T11:30:11.153Z,27.17
2022-10-07T11:32:56.736Z,23.38
2022-10-07T11:35:33.220Z,28.27
2022-10-07T11:38:15.181Z,29.00
2022-10-07T11:41:02.546Z,28.20
2022-10-07T11:43:53.192Z,26.98
2022-10-07T11:46:33.054Z,27.88
2022-10-07T11:49:32.233Z,27.42
2022-10-07T11:52:34.725Z,26.13
2022-10-07T11:55:12.089Z,28.02
2022-10-07T11:57:43.773Z,27.70
2022-10-07T12:00:41.815Z,28.73
2022-10-07T12:03:19.458Z,26.38
2022-10-07T12:05:49.925Z,24.75
2022-10-07T12:08:41.617Z,25.48
2022-10-07T12:11:12.395Z,24.02
2022-10-07T12:13:51.098Z,26.42
2022-10-07T12:16:54.232Z,24.33
2022-10-07T12:19:24.019Z,26.95
2022-10-07T12:21:59.480Z,23.48
2022-10-07T12:26:59.346Z,22.80
2022-10-07T12:29:44.547Z,21.02
2022-10-07T12:32:52.065Z,18.70
2022-10-07T12:35:53.019Z,21.27
2022-10-07T12:38:28.054Z,22.48
2022-10-07T12:41:11.512Z,20.70
2022-10-07T12:44:00.506Z,21.67
2022-10-07T12:46:49.184Z,19.63
2022-10-07T12:49:48.902Z,17.98
2022-10-07T12:52:44.355Z,19.02
2022-10-07T12:55:40.421Z,13.52
2022-10-07T12:59:28.525Z,17.80
2022-10-07T13:02:24.192Z,15.60
2022-10-07T13:05:39.255Z,18.20
2022-10-07T13:08:49.335Z,15.35
2022-10-07T13:12:03.060Z,15.48
2022-10-07T13:14:50.098Z,16.45
2022-10-07T13:18:26.838Z,19.77
2022-10-07T13:21:22.842Z,17.52
2022-10-07T13:26:26.714Z,16.50
2022-10-07T13:29:00.345Z,14.93
2022-10-07T13:31:34.529Z,15.23
2022-10-07T13:34:17.968Z,14.90
2022-10-07T13:36:45.212Z,14.75
2022-10-07T13:39:23.140Z,14.65
2022-10-07T13:41:57.839Z,15.23
2022-10-07T13:44:31.747Z,14.88
2022-10-07T13:47:03.080Z,14.35
2022-10-07T13:49:43.440Z,14.43
2022-10-07T13:52:33.904Z,14.88
2022-10-07T13:55:01.280Z,13.05
2022-10-07T13:57:31.385Z,12.38
2022-10-07T14:00:00.059Z,11.45
2022-10-07T14:02:28.293Z,13.10
2022-10-07T14:05:14.383Z,14.80
2022-10-07T14:07:42.524Z,13.18
2022-10-07T14:10:11.089Z,13.43
2022-10-07T14:12:49.531Z,12.70
2022-10-07T14:15:31.427Z,12.27
2022-10-07T14:18:08.998Z,13.43
2022-10-07T14:21:08.808Z,14.32
2022-10-07T14:23:37.854Z,14.20
2022-10-07T14:26:18.955Z,11.57
2022-10-07T14:28:47.237Z,9.65
2022-10-07T14:31:39.976Z,8.68
2022-10-07T14:34:35.262Z,8.02
2022-10-07T14:37:28.421Z,8.95
2022-10-07T14:39:56.826Z,8.82
2022-10-07T14:42:36.189Z,9.13
2022-10-07T14:45:09.723Z,10.57
2022-10-07T14:47:41.325Z,12.57
2022-10-07T14:50:12.078Z,10.38
2022-10-07T14:52:49.047Z,8.60
2022-10-07T14:55:29.483Z,7.20
2022-10-07T14:57:56.805Z,7.50
2022-10-07T15:00:29.408Z,7.75
2022-10-07T15:02:57.734Z,7.95
2022-10-07T15:05:26.383Z,8.23
2022-10-07T15:07:53.798Z,10.07
2022-10-07T15:10:26.205Z,9.27
2022-10-07T15:12:55.999Z,9.10
2022-10-07T15:15:23.203Z,9.60
2022-10-07T15:17:50.503Z,9.00
2022-10-07T15:20:18.555Z,10.57
2022-10-07T15:22:46.159Z,10.27
2022-10-07T15:25:18.007Z,8.48
2022-10-07T15:27:45.257Z,8.68
2022-10-07T15:30:13.458Z,9.10
2022-10-07T15:32:40.670Z,10.32
2022-10-07T15:35:08.612Z,8.50
2022-10-07T15:37:35.946Z,9.23
2022-10-07T15:40:06.561Z,8.38
2022-10-07T15:42:33.834Z,8.20
2022-10-07T15:45:01.098Z,7.50
2022-10-07T15:47:28.298Z,9.02
2022-10-07T15:49:55.564Z,7.60
2022-10-07T15:52:22.869Z,9.40
2022-10-07T15:54:50.997Z,9.20
2022-10-07T15:57:18.214Z,10.57
2022-10-07T15:59:45.655Z,11.50
2022-10-07T16:02:17.328Z,10.75
2022-10-07T16:04:48.157Z,11.43
2022-10-07T16:07:16.193Z,11.02
2022-10-07T16:09:43.668Z,10.70
2022-10-07T16:12:11.279Z,11.90
2022-10-07T16:14:38.860Z,10.95
2022-10-07T16:17:06.158Z,11.75
2022-10-07T16:19:33.728Z,11.75
2022-10-07T16:22:01.144Z,12.23
2022-10-07T16:24:34.009Z,13.65
2022-10-07T16:27:02.371Z,13.98
2022-10-07T16:29:48.411Z,12.52
2022-10-07T16:32:15.790Z,14.70
2022-10-07T16:34:44.383Z,15.60
2022-10-07T16:37:12.461Z,16.88
2022-10-07T16:39:39.649Z,15.93
2022-10-07T16:42:08.573Z,16.92
2022-10-07T16:44:35.849Z,15.70
2022-10-07T16:47:03.258Z,15.38
2022-10-07T16:49:30.590Z,15.90
2022-10-07T16:51:58.403Z,16.25
2022-10-07T16:54:28.524Z,16.35
2022-10-07T16:56:56.349Z,16.60
2022-10-07T16:59:25.524Z,16.00
2022-10-07T17:01:56.843Z,15.45
2022-10-07T17:04:25.319Z,16.90
2022-10-07T17:06:53.774Z,17.45
2022-10-07T17:09:24.365Z,16.85
2022-10-07T17:11:51.957Z,16.48
2022-10-07T17:14:21.630Z,16.92
2022-10-07T17:16:56.946Z,17.33
2022-10-07T17:19:28.205Z,16.77
2022-10-07T17:21:59.164Z,15.85
2022-10-07T17:24:26.881Z,15.60
2022-10-07T17:26:55.207Z,15.85
2022-10-07T17:29:25.951Z,18.17
2022-10-07T17:31:53.969Z,16.02
2022-10-07T17:34:22.496Z,16.83
2022-10-07T17:36:50.644Z,17.15
2022-10-07T17:39:21.474Z,16.98
2022-10-07T17:41:49.220Z,17.27
2022-10-07T17:44:16.741Z,17.20
2022-10-07T17:46:44.260Z,16.48
2022-10-07T17:49:15.240Z,16.35
2022-10-07T17:51:43.954Z,16.45
2022-10-07T17:54:14.031Z,17.50
2022-10-07T17:56:45.625Z,18.08
2022-10-07T17:59:14.302Z,17.75
2022-10-07T18:01:42.148Z,16.77
2022-10-07T18:04:23.724Z,18.05
2022-10-07T18:06:52.136Z,17.65
2022-10-07T18:09:22.138Z,18.98
2022-10-07T18:12:08.075Z,19.92
2022-10-07T18:17:24.327Z,20.77
2022-10-07T18:19:52.176Z,20.45
2022-10-07T18:22:20.026Z,21.38
2022-10-07T18:24:47.300Z,20.75
2022-10-07T18:27:14.798Z,32.65
2022-10-07T18:29:42.009Z,22.90
2022-10-07T18:32:09.382Z,23.35
2022-10-07T18:34:36.993Z,22.15
2022-10-07T18:37:04.332Z,22.92
2022-10-07T18:39:33.038Z,23.85
2022-10-07T18:42:00.288Z,22.58
2022-10-07T18:44:27.785Z,21.60
2022-10-07T18:46:55.179Z,21.63
2022-10-07T18:49:23.517Z,21.75
2022-10-07T18:51:51.237Z,21.95
2022-10-07T18:54:21.769Z,21.00
2022-10-07T18:56:51.005Z,21.80
2022-10-07T18:59:20.195Z,21.75
2022-10-07T19:01:50.858Z,21.98
2022-10-07T19:04:19.895Z,21.42
2022-10-07T19:06:48.505Z,20.45
2022-10-07T19:09:20.718Z,21.58
2022-10-07T19:11:49.235Z,22.48
2022-10-07T19:14:16.868Z,23.52
2022-10-07T19:16:49.118Z,24.30
2022-10-07T19:19:23.901Z,26.27
2022-10-07T19:21:55.264Z,25.48
2022-10-07T19:24:45.893Z,24.63
2022-10-07T19:27:13.184Z,29.85
2022-10-07T19:29:40.752Z,33.10
2022-10-07T19:32:08.923Z,35.47
2022-10-07T19:34:36.507Z,33.83
2022-10-07T19:37:04.117Z,35.67
2022-10-07T19:39:31.751Z,39.53
2022-10-07T19:41:59.514Z,47.08
2022-10-07T19:44:27.236Z,56.78
2022-10-07T19:46:54.449Z,65.18
2022-10-07T19:49:22.302Z,57.88
2022-10-07T19:51:49.841Z,57.97
2022-10-07T19:54:17.676Z,56.65
2022-10-07T19:56:45.346Z,56.50
2022-10-07T19:59:15.058Z,56.05
2022-10-07T20:01:47.363Z,54.72
2022-10-07T20:04:20.714Z,53.30
2022-10-07T20:06:48.348Z,53.65
2022-10-07T20:09:19.327Z,52.33
2022-10-07T20:11:47.055Z,50.28
2022-10-07T20:14:16.039Z,51.95
2022-10-07T20:16:44.068Z,50.70
2022-10-07T20:19:18.650Z,44.60
2022-10-07T20:21:47.946Z,42.78
2022-10-07T20:24:16.844Z,46.17
2022-10-07T20:26:45.250Z,43.45
2022-10-07T20:29:15.916Z,49.42
2022-10-07T20:31:44.324Z,48.75
2022-10-07T20:34:19.966Z,48.45
2022-10-07T20:39:37.552Z,42.17
2022-10-07T20:42:21.202Z,41.10
2022-10-07T20:44:50.161Z,42.55
2022-10-07T20:47:19.222Z,43.20
2022-10-07T20:49:48.447Z,41.55
2022-10-07T20:52:24.353Z,39.75
2022-10-07T20:54:53.415Z,35.65
2022-10-07T20:57:28.523Z,36.67
2022-10-07T20:59:56.109Z,38.45
2022-10-07T21:02:25.590Z,35.40
2022-10-07T21:04:53.545Z,37.83
2022-10-07T21:07:21.447Z,34.50
2022-10-07T21:09:48.760Z,36.97
2022-10-07T21:12:18.274Z,33.45
2022-10-07T21:14:48.337Z,32.70
2022-10-07T21:17:16.672Z,30.67
2022-10-07T21:19:43.982Z,30.30
2022-10-07T21:22:11.363Z,28.08
2022-10-07T21:24:38.822Z,29.17
2022-10-07T21:27:07.764Z,28.05
2022-10-07T21:29:40.094Z,28.45
2022-10-07T21:32:10.572Z,26.10
2022-10-07T21:34:38.580Z,26.25
2022-10-07T21:37:05.920Z,26.15
2022-10-07T21:39:33.904Z,25.27
2022-10-07T21:42:02.048Z,28.17
2022-10-07T21:44:29.452Z,25.92
2022-10-07T21:46:59.856Z,26.10
2022-10-07T21:49:27.201Z,27.27
2022-10-07T21:51:54.872Z,25.65
2022-10-07T21:54:22.174Z,26.27
2022-10-07T21:56:50.088Z,26.90
2022-10-07T21:59:17.376Z,26.20
2022-10-07T22:01:44.625Z,26.90
2022-10-07T22:04:17.754Z,26.00
2022-10-07T22:07:04.658Z,25.77
2022-10-07T22:09:33.271Z,24.25
2022-10-07T22:12:00.937Z,24.90
2022-10-07T22:14:28.431Z,25.52
2022-10-07T22:16:55.912Z,27.17
2022-10-07T22:19:23.198Z,26.42
2022-10-07T22:21:50.589Z,26.60
2022-10-07T22:24:17.957Z,25.73
2022-10-07T22:26:48.002Z,26.45
2022-10-07T22:29:18.682Z,26.45
2022-10-07T22:31:47.352Z,25.00
2022-10-07T22:34:33.979Z,26.30
2022-10-07T22:37:02.002Z,26.20
2022-10-07T22:39:30.253Z,25.60
2022-10-07T22:41:58.604Z,26.50
2022-10-07T22:44:27.907Z,25.45
2022-10-07T22:46:57.101Z,27.42
2022-10-07T22:49:29.509Z,27.45
2022-10-07T22:51:59.691Z,26.52
2022-10-07T22:54:28.199Z,26.63
2022-10-07T22:56:55.652Z,26.25
2022-10-07T22:59:23.161Z,26.45
2022-10-07T23:01:50.605Z,26.67
2022-10-07T23:04:20.176Z,26.33
2022-10-07T23:06:48.279Z,26.02
2022-10-07T23:09:15.605Z,28.02
2022-10-07T23:11:42.777Z,26.50
2022-10-07T23:14:10.285Z,26.63
2022-10-07T23:16:37.646Z,26.73
2022-10-07T23:19:04.908Z,26.67
2022-10-07T23:21:35.033Z,24.92
2022-10-07T23:24:07.307Z,27.83
2022-10-07T23:26:36.992Z,26.63
2022-10-07T23:29:05.761Z,26.42
2022-10-07T23:31:33.636Z,26.83
2022-10-07T23:34:03.021Z,28.75
2022-10-07T23:36:31.730Z,29.23
2022-10-07T23:39:00.597Z,29.10
2022-10-07T23:41:30.745Z,29.52
2022-10-07T23:44:04.471Z,28.10
2022-10-07T23:46:35.020Z,27.65
2022-10-07T23:49:04.374Z,27.42
2022-10-07T23:51:33.616Z,29.13
2022-10-07T23:54:03.609Z,28.60
2022-10-07T23:56:32.681Z,26.65
2022-10-07T23:59:01.754Z,27.88
